Time;durP1;ratioP1;P1;durP2;ratioP2;P2;SDS_P1;SDS_P2;PMS_P1;PMS_P2;Temp;Humidity;BMP_temperature;BMP_pressure;BME280_temperature;BME280_humidity;BME280_pressure;Samples;Min_cycle;Max_cycle;Signal;HPM_P1;HPM_P2
2023/03/31 00:01:03;;;;;;;27.02;3.33;;;;;;;11.18;100.00;100310.00;5027041;28;20025;-59
2023/03/31 00:03:28;;;;;;;20.65;3.55;;;;;;;11.18;100.00;100302.09;5026924;28;20460;-60
2023/03/31 00:05:58;;;;;;;22.27;3.53;;;;;;;11.10;100.00;100290.13;5026511;28;20014;-59
2023/03/31 00:08:28;;;;;;;13.00;3.00;;;;;;;11.16;100.00;100291.63;5026829;28;20022;-63
2023/03/31 00:10:58;;;;;;;23.50;3.90;;;;;;;11.22;100.00;100287.84;5027081;28;20025;-61
2023/03/31 00:13:23;;;;;;;17.95;4.30;;;;;;;11.25;100.00;100274.53;5026778;28;20487;-62
2023/03/31 00:15:48;;;;;;;20.67;2.90;;;;;;;11.27;100.00;100266.53;5026756;28;20159;-62
2023/03/31 00:18:14;;;;;;;19.25;3.22;;;;;;;11.29;100.00;100265.53;5026747;28;20542;-62
2023/03/31 00:20:41;;;;;;;21.20;3.65;;;;;;;11.30;100.00;100266.41;5008327;28;20480;-64
2023/03/31 00:23:09;;;;;;;18.17;3.40;;;;;;;11.42;100.00;100270.25;5026554;28;20480;-60
2023/03/31 00:25:37;;;;;;;19.45;4.68;;;;;;;11.37;100.00;100267.81;5026770;28;20021;-61
2023/03/31 00:28:03;;;;;;;18.73;3.72;;;;;;;11.47;100.00;100252.44;5026674;28;20168;-61
2023/03/31 00:30:28;;;;;;;19.48;3.15;;;;;;;11.43;100.00;100249.06;5026957;28;20114;-61
2023/03/31 00:32:54;;;;;;;18.40;3.45;;;;;;;11.37;100.00;100237.03;5026551;28;20120;-61
2023/03/31 00:35:19;;;;;;;21.05;3.28;;;;;;;11.37;100.00;100231.75;5025666;28;20068;-62
2023/03/31 00:37:46;;;;;;;12.88;3.55;;;;;;;11.36;100.00;100224.78;5026050;28;20076;-62
2023/03/31 00:40:11;;;;;;;22.17;3.95;;;;;;;11.37;100.00;100215.06;5026427;28;20147;-61
2023/03/31 00:42:41;;;;;;;21.40;3.80;;;;;;;11.28;100.00;100216.34;5026161;28;20071;-60
2023/03/31 00:45:15;;;;;;;19.90;4.15;;;;;;;11.18;100.00;100205.41;5025711;28;20052;-61
2023/03/31 00:47:46;;;;;;;18.30;3.53;;;;;;;11.08;100.00;100210.22;5026259;28;20032;-59
2023/03/31 00:50:20;;;;;;;16.27;4.13;;;;;;;11.15;100.00;100200.28;5007530;28;20029;-61
2023/03/31 00:52:47;;;;;;;17.20;3.65;;;;;;;11.17;100.00;100195.75;5026101;28;20021;-60
2023/03/31 00:55:18;;;;;;;25.70;4.57;;;;;;;11.16;100.00;100195.81;5008239;28;20037;-62
2023/03/31 00:57:45;;;;;;;14.18;3.97;;;;;;;11.07;100.00;100186.56;5008328;28;20037;-61
2023/03/31 01:00:15;;;;;;;21.42;3.92;;;;;;;11.07;100.00;100184.78;5025507;28;20457;-62
2023/03/31 01:02:50;;;;;;;12.95;3.08;;;;;;;11.25;100.00;100179.59;5026182;28;20116;-62
2023/03/31 01:05:36;;;;;;;13.85;3.55;;;;;;;11.23;100.00;100176.19;5008124;28;20029;-62
2023/03/31 01:08:04;;;;;;;16.15;3.63;;;;;;;11.34;100.00;100167.72;5010782;28;20111;-61
2023/03/31 01:10:32;;;;;;;18.83;3.60;;;;;;;11.40;100.00;100163.94;5007592;28;20112;-60
2023/03/31 01:12:58;;;;;;;15.57;2.80;;;;;;;11.46;100.00;100156.59;5092181;22;20731;-62
2023/03/31 01:15:23;;;;;;;13.23;3.28;;;;;;;11.58;100.00;100155.16;5045458;28;20041;-62
2023/03/31 01:17:49;;;;;;;17.65;3.53;;;;;;;11.68;100.00;100144.97;5046042;28;20025;-64
2023/03/31 01:20:27;;;;;;;12.50;3.63;;;;;;;11.70;100.00;100140.50;5045125;28;20078;-63
2023/03/31 01:22:58;;;;;;;12.52;3.20;;;;;;;11.75;100.00;100142.91;5045383;28;20498;-58
2023/03/31 01:25:26;;;;;;;15.05;3.22;;;;;;;11.85;100.00;100133.59;5045836;28;20020;-62
2023/03/31 01:28:08;;;;;;;15.48;3.38;;;;;;;11.87;100.00;100121.16;5045848;28;20021;-62
2023/03/31 01:30:42;;;;;;;10.85;3.55;;;;;;;11.86;100.00;100127.38;5027594;28;20017;-59
2023/03/31 01:33:25;;;;;;;17.00;3.45;;;;;;;11.89;100.00;100102.59;5027057;28;20033;-63
2023/03/31 01:35:57;;;;;;;14.68;3.47;;;;;;;11.94;100.00;100119.06;5044706;28;20479;-64
2023/03/31 01:38:22;;;;;;;19.15;3.03;;;;;;;11.99;100.00;100103.00;5045284;28;20028;-60
2023/03/31 01:41:15;;;;;;;15.48;3.40;;;;;;;11.99;100.00;100103.84;5045547;28;20469;-59
2023/03/31 01:44:08;;;;;;;13.95;3.20;;;;;;;12.05;100.00;100089.47;5027197;28;20048;-60
2023/03/31 01:47:02;;;;;;;12.70;3.03;;;;;;;11.97;100.00;100086.38;5027856;28;20049;-63
2023/03/31 01:49:39;;;;;;;18.58;3.53;;;;;;;11.93;100.00;100083.03;4973245;28;20031;-63
2023/03/31 01:52:22;;;;;;;19.45;3.83;;;;;;;11.86;100.00;100079.84;5045144;28;20037;-63
2023/03/31 01:54:51;;;;;;;15.75;3.10;;;;;;;11.79;100.00;100078.47;5045490;28;20032;-64
2023/03/31 01:57:23;;;;;;;18.48;3.22;;;;;;;11.82;100.00;100062.47;5026914;28;20025;-59
2023/03/31 02:00:00;;;;;;;10.68;2.72;;;;;;;11.82;100.00;100051.91;5027234;28;20044;-62
2023/03/31 02:02:38;;;;;;;15.85;2.83;;;;;;;11.85;100.00;100057.03;5027528;28;20036;-61
2023/03/31 02:05:10;;;;;;;18.00;3.97;;;;;;;11.72;100.00;100045.41;5044127;28;20028;-61
2023/03/31 02:07:40;;;;;;;22.02;3.65;;;;;;;11.75;100.00;100038.16;5010437;28;20052;-63
2023/03/31 02:10:08;;;;;;;16.83;2.90;;;;;;;11.80;100.00;100034.47;5026944;28;20540;-63
2023/03/31 02:12:35;;;;;;;17.67;3.30;;;;;;;11.77;100.00;100019.63;5026851;28;20037;-59
2023/03/31 02:15:03;;;;;;;13.27;3.08;;;;;;;11.63;100.00;100015.91;5026958;28;20017;-58
2023/03/31 02:17:31;;;;;;;24.17;3.67;;;;;;;11.54;100.00;100005.00;5044760;28;20245;-60
2023/03/31 02:19:59;;;;;;;14.60;3.03;;;;;;;11.60;100.00;100008.19;5027142;28;20383;-64
2023/03/31 02:22:28;;;;;;;20.67;3.17;;;;;;;11.62;100.00;99987.81;5044139;28;20225;-59
2023/03/31 02:24:54;;;;;;;20.17;3.13;;;;;;;11.57;100.00;99983.72;5027179;28;20387;-61
2023/03/31 02:27:25;;;;;;;12.73;2.85;;;;;;;11.62;100.00;99977.28;5026571;28;20037;-62
2023/03/31 02:29:50;;;;;;;12.57;2.75;;;;;;;11.55;100.00;99970.59;5044758;28;20167;-58
2023/03/31 02:32:36;;;;;;;14.50;3.17;;;;;;;11.53;100.00;99956.63;5026562;28;20059;-60
2023/03/31 02:35:02;;;;;;;14.15;2.85;;;;;;;11.56;100.00;99945.91;5043819;28;20029;-61
2023/03/31 02:37:28;;;;;;;14.65;3.00;;;;;;;11.54;100.00;99937.25;5045045;28;20040;-60
2023/03/31 02:39:56;;;;;;;13.98;3.30;;;;;;;11.58;100.00;99930.88;5027218;28;20051;-59
2023/03/31 02:42:21;;;;;;;10.35;2.60;;;;;;;11.44;100.00;99922.84;5026495;28;20029;-58
2023/03/31 02:44:47;;;;;;;12.35;2.88;;;;;;;11.35;100.00;99921.53;5044407;28;20029;-63
2023/03/31 02:47:14;;;;;;;13.55;2.95;;;;;;;11.43;100.00;99907.94;5026470;28;20017;-62
2023/03/31 02:49:43;;;;;;;14.18;3.00;;;;;;;11.36;100.00;99908.28;5026654;28;20471;-64
2023/03/31 02:52:20;;;;;;;7.43;2.75;;;;;;;11.24;100.00;99898.34;5027305;28;20029;-62
2023/03/31 02:55:23;;;;;;;14.57;3.50;;;;;;;11.24;100.00;99891.31;5045302;28;20036;-58
2023/03/31 02:57:53;;;;;;;11.18;2.45;;;;;;;11.32;100.00;99880.34;5044519;28;20029;-63
2023/03/31 03:00:35;;;;;;;14.80;2.83;;;;;;;11.21;100.00;99864.22;5026441;28;20483;-61
2023/03/31 03:03:20;;;;;;;14.65;2.90;;;;;;;11.29;100.00;99864.66;5026141;28;20025;-62
2023/03/31 03:06:22;;;;;;;14.00;3.50;;;;;;;11.26;100.00;99859.59;5044709;28;20135;-61
2023/03/31 03:09:00;;;;;;;13.52;3.15;;;;;;;11.19;100.00;99855.53;5027427;28;21127;-67
2023/03/31 03:11:38;;;;;;;11.38;2.97;;;;;;;11.21;100.00;99849.28;5027029;28;20495;-59
2023/03/31 03:14:25;;;;;;;9.90;2.60;;;;;;;11.22;100.00;99845.69;5026162;28;20056;-62
2023/03/31 03:16:58;;;;;;;11.93;2.67;;;;;;;11.17;100.00;99837.16;5044589;28;20085;-62
2023/03/31 03:19:23;;;;;;;12.57;3.22;;;;;;;11.14;100.00;99850.53;5025568;28;20100;-62
2023/03/31 03:21:49;;;;;;;16.00;2.97;;;;;;;11.21;100.00;99833.44;5026469;28;20421;-61
2023/03/31 03:24:16;;;;;;;13.45;2.47;;;;;;;11.08;100.00;99833.22;5043759;28;20075;-60
2023/03/31 03:26:43;;;;;;;12.52;1.98;;;;;;;11.16;100.00;99822.28;5043840;28;20219;-61
2023/03/31 03:29:11;;;;;;;11.32;2.10;;;;;;;11.04;100.00;99815.88;5044052;28;20076;-62
2023/03/31 03:31:36;;;;;;;11.52;2.28;;;;;;;10.90;100.00;99805.19;5043755;28;20032;-63
2023/03/31 03:34:02;;;;;;;10.70;2.17;;;;;;;10.96;100.00;99805.72;5043741;28;20033;-63
2023/03/31 03:36:27;;;;;;;8.40;2.03;;;;;;;10.99;100.00;99796.81;5047927;28;20021;-62
2023/03/31 03:38:52;;;;;;;9.77;2.45;;;;;;;10.99;100.00;99781.84;5047780;28;20078;-62
2023/03/31 03:41:17;;;;;;;9.02;2.20;;;;;;;10.93;100.00;99778.69;5047174;28;20049;-62
2023/03/31 03:43:43;;;;;;;6.47;1.70;;;;;;;10.94;100.00;99764.56;5047323;28;20021;-62
2023/03/31 03:46:08;;;;;;;8.60;2.10;;;;;;;10.92;100.00;99758.50;5047904;28;20033;-61
2023/03/31 03:48:34;;;;;;;8.70;2.20;;;;;;;10.96;100.00;99749.53;5046615;28;20139;-62
2023/03/31 03:51:00;;;;;;;8.20;2.38;;;;;;;10.93;100.00;99745.25;5047570;28;20020;-57
2023/03/31 03:53:25;;;;;;;15.82;3.17;;;;;;;10.96;100.00;99739.00;5047471;28;20104;-62
2023/03/31 03:55:50;;;;;;;7.85;2.55;;;;;;;10.94;100.00;99723.25;5047148;28;20037;-61
2023/03/31 03:58:16;;;;;;;12.93;2.92;;;;;;;10.76;100.00;99721.59;5046913;28;20033;-63
2023/03/31 04:00:41;;;;;;;13.73;3.85;;;;;;;10.83;100.00;99713.28;5047173;28;20048;-58
2023/03/31 04:03:07;;;;;;;11.98;3.20;;;;;;;10.85;100.00;99708.78;5028115;28;20028;-61
2023/03/31 04:05:32;;;;;;;8.77;2.70;;;;;;;10.95;100.00;99700.38;5047584;28;20563;-63
2023/03/31 04:07:57;;;;;;;13.20;3.58;;;;;;;10.95;100.00;99692.47;5047605;28;20554;-62
2023/03/31 04:10:23;;;;;;;10.70;3.20;;;;;;;10.93;100.00;99691.72;5046833;28;20494;-57
2023/03/31 04:12:48;;;;;;;14.80;4.57;;;;;;;10.97;100.00;99685.34;5046969;28;20416;-62
2023/03/31 04:15:13;;;;;;;14.30;3.92;;;;;;;10.96;100.00;99675.75;5046816;28;20132;-61
2023/03/31 04:17:39;;;;;;;13.75;4.55;;;;;;;11.01;100.00;99676.31;5046774;28;20116;-62
2023/03/31 04:20:08;;;;;;;10.75;3.55;;;;;;;11.10;100.00;99669.69;5045930;28;20025;-60
2023/03/31 04:22:39;;;;;;;12.15;3.33;;;;;;;11.09;100.00;99660.09;5047068;28;20025;-61
2023/03/31 04:25:18;;;;;;;11.45;3.85;;;;;;;11.10;100.00;99654.75;5046755;28;20021;-61
2023/03/31 04:27:49;;;;;;;15.27;4.05;;;;;;;11.13;100.00;99643.16;5046811;28;20025;-60
2023/03/31 04:30:21;;;;;;;13.43;3.30;;;;;;;10.93;100.00;99636.38;5046277;28;20021;-62
2023/03/31 04:32:51;;;;;;;13.90;3.88;;;;;;;11.01;100.00;99620.97;5046465;28;20086;-63
2023/03/31 04:35:19;;;;;;;17.10;3.17;;;;;;;10.86;100.00;99620.88;5045496;28;20029;-61
2023/03/31 04:37:48;;;;;;;13.30;3.63;;;;;;;10.90;100.00;99618.09;5046809;28;20021;-61
2023/03/31 04:40:15;;;;;;;10.95;2.65;;;;;;;10.94;100.00;99617.84;5046561;28;20017;-63
2023/03/31 04:42:41;;;;;;;7.70;2.30;;;;;;;10.92;100.00;99608.28;5028474;28;20028;-62
2023/03/31 04:45:06;;;;;;;15.27;3.03;;;;;;;10.83;100.00;99607.00;5045738;28;20032;-62
2023/03/31 04:47:32;;;;;;;11.63;2.95;;;;;;;10.85;100.00;99598.13;5045670;28;20025;-61
2023/03/31 04:49:57;;;;;;;6.93;2.42;;;;;;;10.96;100.00;99586.97;5046082;28;20029;-63
2023/03/31 04:52:22;;;;;;;9.27;3.40;;;;;;;10.97;100.00;99586.03;5028022;28;20123;-63
2023/03/31 04:54:48;;;;;;;15.38;3.05;;;;;;;10.95;100.00;99581.78;5028066;28;20058;-63
2023/03/31 04:57:13;;;;;;;11.48;3.42;;;;;;;10.87;100.00;99583.06;5045787;28;20096;-62
2023/03/31 04:59:38;;;;;;;9.25;3.20;;;;;;;10.96;100.00;99572.94;5045951;28;20359;-63
2023/03/31 05:02:04;;;;;;;10.15;2.95;;;;;;;10.99;100.00;99570.16;5045797;28;20449;-62
2023/03/31 05:04:29;;;;;;;12.75;2.97;;;;;;;10.97;100.00;99572.00;5045582;28;20104;-63
2023/03/31 05:06:55;;;;;;;12.70;2.55;;;;;;;10.98;100.00;99563.16;5046328;28;20083;-62
2023/03/31 05:09:20;;;;;;;15.15;3.40;;;;;;;11.02;100.00;99551.53;5027765;28;20533;-63
2023/03/31 05:11:46;;;;;;;8.85;2.90;;;;;;;10.92;100.00;99547.69;5045547;28;20619;-62
2023/03/31 05:14:11;;;;;;;13.48;2.90;;;;;;;10.93;100.00;99549.41;5045381;28;20045;-63
2023/03/31 05:16:36;;;;;;;11.35;2.42;;;;;;;10.92;100.00;99545.03;5046080;28;20096;-63
2023/03/31 05:19:02;;;;;;;11.57;2.90;;;;;;;10.81;100.00;99543.84;5044735;28;20473;-64
2023/03/31 05:21:29;;;;;;;14.07;3.50;;;;;;;10.90;100.00;99536.41;5028143;28;20021;-63
2023/03/31 05:23:55;;;;;;;10.18;3.03;;;;;;;10.83;100.00;99536.72;5045731;28;20025;-63
2023/03/31 05:26:21;;;;;;;11.20;3.08;;;;;;;10.92;100.00;99540.63;5027564;28;20594;-62
2023/03/31 05:28:47;;;;;;;13.68;3.33;;;;;;;10.97;100.00;99521.94;5045497;28;20063;-66
2023/03/31 05:31:13;;;;;;;9.35;2.72;;;;;;;11.02;100.00;99526.94;5045159;28;20048;-64
2023/03/31 05:33:40;;;;;;;10.80;2.50;;;;;;;10.96;100.00;99528.16;5026986;28;20372;-63
2023/03/31 05:36:10;;;;;;;13.05;2.90;;;;;;;11.03;100.00;99515.44;5045402;28;20025;-61
2023/03/31 05:38:35;;;;;;;11.20;2.65;;;;;;;11.04;100.00;99523.28;5045417;28;20025;-61
2023/03/31 05:41:00;;;;;;;10.27;2.53;;;;;;;11.14;100.00;99522.75;5045166;28;20024;-62
2023/03/31 05:43:26;;;;;;;13.40;2.85;;;;;;;11.16;100.00;99516.44;5045146;28;20028;-64
2023/03/31 05:45:51;;;;;;;8.57;2.42;;;;;;;11.18;100.00;99513.72;5045141;28;20108;-64
2023/03/31 05:48:16;;;;;;;8.45;2.67;;;;;;;11.12;100.00;99515.78;5044257;28;20108;-61
2023/03/31 05:50:42;;;;;;;8.13;2.38;;;;;;;11.17;100.00;99518.13;5045055;28;20108;-62
2023/03/31 05:53:08;;;;;;;7.45;2.50;;;;;;;11.27;100.00;99512.34;5044480;28;20033;-64
2023/03/31 05:55:37;;;;;;;11.70;2.70;;;;;;;11.14;100.00;99509.56;5044837;28;20028;-64
2023/03/31 05:58:02;;;;;;;5.40;2.05;;;;;;;11.17;100.00;99512.03;5044992;28;20029;-60
2023/03/31 06:00:27;;;;;;;7.07;1.80;;;;;;;11.19;100.00;99502.22;5045638;28;20361;-64
2023/03/31 06:02:53;;;;;;;6.07;2.40;;;;;;;11.19;100.00;99500.44;5044438;28;20033;-64
2023/03/31 06:05:18;;;;;;;8.73;2.00;;;;;;;11.28;100.00;99500.84;5044847;28;20904;-62
2023/03/31 06:07:43;;;;;;;4.72;1.92;;;;;;;11.23;100.00;99495.88;5027048;28;20028;-64
2023/03/31 06:10:09;;;;;;;5.10;1.65;;;;;;;11.27;100.00;99497.38;5044739;28;20018;-64
2023/03/31 06:12:35;;;;;;;5.20;1.77;;;;;;;11.33;100.00;99491.75;5044359;28;20045;-63
2023/03/31 06:15:01;;;;;;;4.57;1.55;;;;;;;11.38;100.00;99491.47;5044588;28;20017;-61
2023/03/31 06:17:26;;;;;;;4.57;1.60;;;;;;;11.48;100.00;99483.84;5045213;28;20069;-62
2023/03/31 06:19:52;;;;;;;8.68;1.83;;;;;;;11.38;100.00;99486.22;5026077;28;20157;-62
2023/03/31 06:22:17;;;;;;;4.25;1.58;;;;;;;11.39;100.00;99490.53;5044402;28;20416;-63
2023/03/31 06:24:42;;;;;;;9.10;1.77;;;;;;;11.38;100.00;99483.56;5045162;28;20047;-65
2023/03/31 06:27:08;;;;;;;7.30;1.70;;;;;;;11.33;100.00;99485.63;5045258;28;20074;-66
2023/03/31 06:29:33;;;;;;;10.38;1.50;;;;;;;11.30;100.00;99480.50;5045580;28;20023;-63
2023/03/31 06:31:59;;;;;;;8.95;1.60;;;;;;;11.29;100.00;99474.38;5044444;28;20479;-62
2023/03/31 06:34:25;;;;;;;6.10;1.80;;;;;;;11.35;100.00;99481.94;5027389;28;20587;-65
2023/03/31 06:36:50;;;;;;;6.20;1.80;;;;;;;11.37;100.00;99472.16;5045056;28;20092;-65
2023/03/31 06:39:16;;;;;;;4.75;1.52;;;;;;;11.36;100.00;99473.09;5044855;28;20017;-66
2023/03/31 06:41:41;;;;;;;4.88;1.20;;;;;;;11.38;100.00;99458.03;5044380;28;20025;-64
2023/03/31 06:44:06;;;;;;;3.30;1.58;;;;;;;11.43;100.00;99470.09;5044531;28;20032;-66
2023/03/31 06:46:32;;;;;;;7.60;1.70;;;;;;;11.40;100.00;99450.03;5046150;28;20029;-65
2023/03/31 06:48:57;;;;;;;7.35;1.80;;;;;;;11.46;100.00;99454.94;5028517;28;20021;-64
2023/03/31 06:51:22;;;;;;;7.97;1.65;;;;;;;11.49;100.00;99443.34;5046160;28;20516;-64
2023/03/31 06:53:48;;;;;;;4.22;1.45;;;;;;;11.58;100.00;99442.78;5045634;28;20398;-66
2023/03/31 06:56:13;;;;;;;8.20;2.33;;;;;;;11.60;100.00;99438.28;5044942;28;20411;-66
2023/03/31 06:58:38;;;;;;;6.68;1.50;;;;;;;11.58;100.00;99440.16;5045537;28;20494;-66
2023/03/31 07:01:04;;;;;;;2.60;1.27;;;;;;;11.61;100.00;99434.69;5045522;28;20415;-66
2023/03/31 07:03:30;;;;;;;8.18;1.77;;;;;;;11.63;100.00;99435.44;5044695;28;20037;-61
2023/03/31 07:05:56;;;;;;;4.80;1.30;;;;;;;11.81;100.00;99430.00;5045147;28;20100;-63
2023/03/31 07:08:22;;;;;;;3.55;1.35;;;;;;;11.86;100.00;99427.91;5044336;28;20096;-64
2023/03/31 07:10:49;;;;;;;3.92;1.70;;;;;;;11.85;100.00;99430.63;5048288;28;20036;-63
2023/03/31 07:13:15;;;;;;;9.70;2.38;;;;;;;11.79;100.00;99434.50;5048156;28;20057;-61
2023/03/31 07:15:41;;;;;;;7.63;2.25;;;;;;;11.85;100.00;99430.63;5048426;28;20025;-63
2023/03/31 07:18:08;;;;;;;9.23;2.03;;;;;;;11.85;100.00;99428.00;5029611;28;20021;-63
2023/03/31 07:20:34;;;;;;;6.65;1.75;;;;;;;11.92;100.00;99431.94;5030226;28;20082;-62
2023/03/31 07:23:03;;;;;;;5.57;1.70;;;;;;;12.02;100.00;99421.69;5047535;28;20021;-57
2023/03/31 07:25:28;;;;;;;;;;;;;;;12.03;100.00;99423.38;5048186;28;20025;-59
2023/03/31 07:27:54;;;;;;;6.63;2.25;;;;;;;12.18;100.00;99424.22;5048142;28;19912;-61
2023/03/31 07:30:20;;;;;;;11.38;2.30;;;;;;;12.22;100.00;99422.25;5029646;28;20061;-62
2023/03/31 07:32:47;;;;;;;9.05;2.20;;;;;;;12.12;100.00;99417.53;5046719;28;20483;-61
2023/03/31 07:35:12;;;;;;;9.07;2.65;;;;;;;12.24;100.00;99423.84;5047202;28;20523;-64
2023/03/31 07:37:40;;;;;;;9.15;2.20;;;;;;;12.21;100.00;99412.59;5029626;28;20032;-64
2023/03/31 07:40:06;;;;;;;13.35;2.35;;;;;;;12.32;100.00;99412.78;5046806;28;20025;-64
2023/03/31 07:42:33;;;;;;;8.70;2.20;;;;;;;12.43;100.00;99419.16;5049024;28;20025;-63
2023/03/31 07:44:58;;;;;;;8.68;2.28;;;;;;;12.45;100.00;99409.34;5048708;28;20059;-59
2023/03/31 07:47:24;;;;;;;11.40;2.50;;;;;;;12.60;100.00;99413.63;5049545;28;20048;-63
2023/03/31 07:49:50;;;;;;;9.30;2.67;;;;;;;12.55;100.00;99414.88;5047682;28;20056;-64
2023/03/31 07:52:17;;;;;;;10.02;2.70;;;;;;;12.60;100.00;99405.72;5030285;28;20021;-61
2023/03/31 07:54:42;;;;;;;9.80;2.65;;;;;;;12.68;100.00;99399.06;5046973;28;20028;-62
2023/03/31 07:57:08;;;;;;;16.65;2.95;;;;;;;12.89;100.00;99399.44;5046958;28;20036;-64
2023/03/31 07:59:34;;;;;;;11.48;2.78;;;;;;;13.00;100.00;99396.06;5029896;28;20025;-64
2023/03/31 08:02:00;;;;;;;17.05;3.22;;;;;;;13.10;100.00;99398.94;5046877;28;20029;-61
2023/03/31 08:04:25;;;;;;;9.55;3.03;;;;;;;13.16;100.00;99392.38;5046650;28;20025;-63
2023/03/31 08:06:50;;;;;;;12.02;2.67;;;;;;;12.99;100.00;99389.09;5047386;28;20032;-64
2023/03/31 08:09:16;;;;;;;9.20;2.50;;;;;;;12.97;100.00;99389.19;5046637;28;20035;-62
2023/03/31 08:11:42;;;;;;;10.52;2.30;;;;;;;12.96;100.00;99391.94;5047312;28;20029;-63
2023/03/31 08:14:07;;;;;;;11.45;2.60;;;;;;;12.94;100.00;99384.09;5028987;28;20044;-63
2023/03/31 08:16:33;;;;;;;13.50;3.15;;;;;;;13.11;100.00;99380.34;5046916;28;20021;-64
2023/03/31 08:18:58;;;;;;;12.70;3.47;;;;;;;13.02;100.00;99386.25;5046475;28;20388;-62
2023/03/31 08:21:23;;;;;;;14.68;3.20;;;;;;;13.19;100.00;99376.31;5048234;28;20028;-57
2023/03/31 08:23:49;;;;;;;11.05;3.00;;;;;;;13.22;100.00;99365.53;5047703;28;20108;-63
2023/03/31 08:26:17;;;;;;;10.73;2.80;;;;;;;13.44;100.00;99369.31;5030149;28;20056;-62
2023/03/31 08:28:42;;;;;;;13.05;2.78;;;;;;;13.65;100.00;99361.72;5048033;28;20036;-64
2023/03/31 08:31:09;;;;;;;9.27;2.28;;;;;;;13.81;100.00;99361.47;5048116;28;20025;-64
2023/03/31 08:33:36;;;;;;;10.88;2.75;;;;;;;13.55;100.00;99361.53;5047095;28;20029;-66
2023/03/31 08:36:07;;;;;;;8.77;2.42;;;;;;;13.24;100.00;99350.38;5047452;28;20021;-60
2023/03/31 08:38:36;;;;;;;7.22;2.35;;;;;;;13.26;100.00;99335.25;5047759;28;20027;-63
2023/03/31 08:41:02;;;;;;;19.73;3.30;;;;;;;13.05;100.00;99338.44;5047862;28;20014;-65
2023/03/31 08:43:40;;;;;;;17.08;3.83;;;;;;;12.92;100.00;99342.88;5030658;28;20021;-59
2023/03/31 08:46:09;;;;;;;17.20;3.50;;;;;;;13.05;100.00;99349.00;5030630;28;20048;-62
2023/03/31 08:48:47;;;;;;;21.27;4.28;;;;;;;13.04;100.00;99339.41;5029474;28;20020;-62
2023/03/31 08:51:23;;;;;;;21.50;3.45;;;;;;;13.37;100.00;99331.88;5013946;28;20041;-64
2023/03/31 08:53:58;;;;;;;22.38;3.13;;;;;;;13.39;100.00;99336.09;5047710;28;20945;-63
2023/03/31 08:56:25;;;;;;;17.60;3.60;;;;;;;13.30;100.00;99338.56;5045349;28;20125;-62
2023/03/31 08:58:51;;;;;;;19.58;3.78;;;;;;;13.32;100.00;99326.03;5050214;28;20052;-64
2023/03/31 09:01:42;;;;;;;18.27;3.75;;;;;;;13.41;100.00;99333.34;5047150;28;20063;-64
2023/03/31 09:04:19;;;;;;;15.15;3.92;;;;;;;13.48;100.00;99307.28;5017723;28;20121;-61
2023/03/31 09:06:50;;;;;;;22.42;3.67;;;;;;;13.49;100.00;99332.81;5053694;28;20044;-67
2023/03/31 09:09:42;;;;;;;19.27;4.43;;;;;;;13.89;100.00;99322.06;5035965;28;20033;-65
2023/03/31 09:12:17;;;;;;;17.48;3.08;;;;;;;13.96;100.00;99316.28;5025133;28;20056;-60
2023/03/31 09:15:06;;;;;;;20.05;3.22;;;;;;;14.11;100.00;99307.25;5052435;28;20048;-64
2023/03/31 09:17:36;;;;;;;14.23;3.83;;;;;;;14.33;100.00;99318.88;5050923;28;20025;-60
2023/03/31 09:20:08;;;;;;;21.40;4.28;;;;;;;14.27;100.00;99308.78;5029819;28;20379;-63
2023/03/31 09:22:44;;;;;;;16.58;3.70;;;;;;;14.34;100.00;99307.34;5029921;28;20047;-62
2023/03/31 09:25:10;;;;;;;15.68;3.10;;;;;;;14.21;100.00;99309.22;5028370;28;20632;-61
2023/03/31 09:27:36;;;;;;;14.85;3.35;;;;;;;14.02;100.00;99308.78;5045850;28;20540;-64
2023/03/31 09:30:23;;;;;;;20.65;3.90;;;;;;;13.89;100.00;99295.59;5035772;28;20493;-61
2023/03/31 09:32:54;;;;;;;18.77;4.20;;;;;;;13.83;100.00;99300.47;5024816;28;20123;-62
2023/03/31 09:35:26;;;;;;;20.70;3.95;;;;;;;13.71;100.00;99281.03;5028420;28;20036;-61
2023/03/31 09:37:52;;;;;;;15.35;3.35;;;;;;;13.86;100.00;99285.22;5047000;28;20040;-62
2023/03/31 09:40:23;;;;;;;18.52;3.95;;;;;;;13.95;100.00;99296.09;5046172;28;20071;-61
2023/03/31 09:43:17;;;;;;;18.77;3.40;;;;;;;14.03;100.00;99291.09;5046545;28;20111;-62
2023/03/31 09:45:43;;;;;;;12.27;3.95;;;;;;;14.20;100.00;99278.38;5027083;28;20032;-62
2023/03/31 09:48:30;;;;;;;13.07;3.25;;;;;;;13.96;100.00;99280.09;5028962;28;20021;-62
2023/03/31 09:51:02;;;;;;;13.90;3.20;;;;;;;14.07;100.00;99274.00;5034201;28;20028;-59
2023/03/31 09:53:41;;;;;;;14.95;3.13;;;;;;;14.14;100.00;99275.25;5029510;28;20107;-61
2023/03/31 09:56:07;;;;;;;14.73;3.22;;;;;;;14.37;100.00;99272.69;5045616;28;20453;-60
2023/03/31 09:58:41;;;;;;;18.15;3.67;;;;;;;14.38;100.00;99271.72;5038977;28;20077;-63
2023/03/31 10:01:08;;;;;;;16.58;3.88;;;;;;;14.34;100.00;99267.63;5028162;28;20028;-62
2023/03/31 10:03:48;;;;;;;18.13;3.65;;;;;;;14.14;100.00;99272.59;5043361;28;20013;-62
2023/03/31 10:06:14;;;;;;;14.18;3.88;;;;;;;14.07;100.00;99260.75;5023331;28;20045;-61
2023/03/31 10:08:42;;;;;;;15.40;3.53;;;;;;;13.99;100.00;99261.31;5028840;28;20383;-61
2023/03/31 10:11:10;;;;;;;15.95;3.00;;;;;;;14.01;100.00;99256.78;5028756;28;20429;-61
2023/03/31 10:13:44;;;;;;;13.85;3.92;;;;;;;13.99;100.00;99257.81;5011402;28;20467;-63
2023/03/31 10:16:22;;;;;;;17.58;2.95;;;;;;;13.99;100.00;99266.63;5045585;28;20028;-62
2023/03/31 10:18:48;;;;;;;15.20;3.15;;;;;;;13.89;100.00;99257.66;5044909;28;20496;-63
2023/03/31 10:21:25;;;;;;;16.02;3.45;;;;;;;13.82;100.00;99253.78;5045208;28;20085;-59
2023/03/31 10:23:51;;;;;;;21.95;3.50;;;;;;;13.75;100.00;99245.41;5046482;28;20066;-62
2023/03/31 10:26:25;;;;;;;15.55;2.90;;;;;;;13.64;100.00;99256.81;5046128;28;20029;-63
2023/03/31 10:28:51;;;;;;;19.67;3.65;;;;;;;13.49;100.00;99249.00;5028819;28;20388;-62
2023/03/31 10:31:18;;;;;;;13.63;2.63;;;;;;;13.48;100.00;99260.53;5046295;28;20032;-62
2023/03/31 10:33:46;;;;;;;15.77;2.80;;;;;;;13.71;100.00;99259.84;5028217;28;20618;-61
2023/03/31 10:36:20;;;;;;;19.02;2.95;;;;;;;13.62;100.00;99250.78;5028804;28;20029;-61
2023/03/31 10:38:47;;;;;;;15.82;2.97;;;;;;;13.48;100.00;99270.25;5029076;28;20056;-62
2023/03/31 10:41:21;;;;;;;13.38;2.92;;;;;;;13.33;100.00;99253.69;5046298;28;20543;-62
2023/03/31 10:43:54;;;;;;;17.92;3.40;;;;;;;13.39;100.00;99271.75;5046618;28;20172;-64
2023/03/31 10:46:21;;;;;;;19.98;2.90;;;;;;;13.42;100.00;99260.13;5032694;28;20547;-59
2023/03/31 10:48:46;;;;;;;18.75;2.95;;;;;;;13.45;100.00;99254.63;5049574;28;20111;-61
2023/03/31 10:51:27;;;;;;;14.60;2.63;;;;;;;13.61;100.00;99265.78;5070000;28;20111;-60
2023/03/31 10:53:54;;;;;;;10.52;2.42;;;;;;;13.30;100.00;99262.66;5070241;28;20119;-60
2023/03/31 10:56:39;;;;;;;11.15;2.85;;;;;;;13.66;100.00;99249.59;5070736;28;20033;-61
2023/03/31 10:59:14;;;;;;;8.73;2.40;;;;;;;13.76;100.00;99247.13;5071139;28;20075;-62
2023/03/31 11:02:05;;;;;;;17.70;2.75;;;;;;;13.83;100.00;99244.88;5071241;28;20119;-63
2023/03/31 11:04:45;;;;;;;18.98;3.15;;;;;;;13.97;100.00;99239.41;5034898;28;20040;-63
2023/03/31 11:07:32;;;;;;;13.10;2.92;;;;;;;14.04;100.00;99234.50;5050451;28;20039;-61
2023/03/31 11:10:28;;;;;;;12.43;3.03;;;;;;;13.64;100.00;99230.34;5050898;28;20054;-63
2023/03/31 11:13:20;;;;;;;9.98;2.58;;;;;;;13.42;100.00;99233.66;5032821;28;20041;-63
2023/03/31 11:16:04;;;;;;;12.15;2.88;;;;;;;13.48;100.00;99223.47;5050382;28;20364;-63
2023/03/31 11:18:32;;;;;;;10.63;2.78;;;;;;;13.75;100.00;99234.84;5033193;28;20700;-63
2023/03/31 11:21:25;;;;;;;8.10;2.60;;;;;;;13.69;100.00;99214.13;5059386;28;20090;-61
2023/03/31 11:24:02;;;;;;;14.10;2.47;;;;;;;13.63;100.00;99220.69;5071241;28;20035;-63
2023/03/31 11:26:45;;;;;;;11.73;2.60;;;;;;;13.44;100.00;99207.94;5071515;28;20025;-65
2023/03/31 11:29:35;;;;;;;15.75;2.47;;;;;;;13.22;100.00;99214.78;5070128;28;20033;-63